sensor_id;sensor_type;location;lat;lon;timestamp;P1;durP1;ratioP1;P2;durP2;ratioP2
38037;SDS011;23843;51.320;12.340;2022-12-20T05:31:35;12.03;;;7.53;;
38037;SDS011;23843;51.320;12.340;2022-12-20T05:34:00;10.00;;;7.17;;
38037;SDS011;23843;51.320;12.340;2022-12-20T05:36:26;10.73;;;6.90;;
38037;SDS011;23843;51.320;12.340;2022-12-20T05:38:51;11.73;;;7.23;;
38037;SDS011;23843;51.320;12.340;2022-12-20T05:41:17;11.40;;;7.33;;
38037;SDS011;23843;51.320;12.340;2022-12-20T05:43:42;12.47;;;7.63;;
38037;SDS011;23843;51.320;12.340;2022-12-20T05:46:08;9.77;;;6.03;;
38037;SDS011;23843;51.320;12.340;2022-12-20T05:48:35;8.77;;;5.47;;
38037;SDS011;23843;51.320;12.340;2022-12-20T05:51:01;6.23;;;4.33;;
38037;SDS011;23843;51.320;12.340;2022-12-20T05:53:26;8.50;;;5.17;;
38037;SDS011;23843;51.320;12.340;2022-12-20T05:55:52;10.33;;;6.53;;
38037;SDS011;23843;51.320;12.340;2022-12-20T05:58:18;9.43;;;5.80;;
38037;SDS011;23843;51.320;12.340;2022-12-20T06:00:44;7.83;;;5.63;;
38037;SDS011;23843;51.320;12.340;2022-12-20T06:03:10;10.20;;;6.50;;
38037;SDS011;23843;51.320;12.340;2022-12-20T06:05:37;13.50;;;7.60;;
38037;SDS011;23843;51.320;12.340;2022-12-20T06:08:03;10.00;;;6.70;;
38037;SDS011;23843;51.320;12.340;2022-12-20T06:10:30;10.53;;;6.87;;
38037;SDS011;23843;51.320;12.340;2022-12-20T06:12:56;8.80;;;6.00;;
38037;SDS011;23843;51.320;12.340;2022-12-20T06:15:21;8.90;;;6.53;;
38037;SDS011;23843;51.320;12.340;2022-12-20T06:17:47;10.50;;;6.87;;
38037;SDS011;23843;51.320;12.340;2022-12-20T06:20:12;12.03;;;7.43;;
38037;SDS011;23843;51.320;12.340;2022-12-20T06:22:39;15.10;;;7.30;;
38037;SDS011;23843;51.320;12.340;2022-12-20T06:25:05;15.50;;;8.63;;
38037;SDS011;23843;51.320;12.340;2022-12-20T06:27:30;12.73;;;8.10;;
38037;SDS011;23843;51.320;12.340;2022-12-20T06:29:56;15.07;;;8.83;;
38037;SDS011;23843;51.320;12.340;2022-12-20T06:32:21;10.03;;;6.63;;
38037;SDS011;23843;51.320;12.340;2022-12-20T06:34:47;8.90;;;5.40;;
38037;SDS011;23843;51.320;12.340;2022-12-20T06:37:12;10.53;;;6.40;;
38037;SDS011;23843;51.320;12.340;2022-12-20T06:39:39;14.43;;;8.27;;
38037;SDS011;23843;51.320;12.340;2022-12-20T06:42:04;14.70;;;8.30;;
38037;SDS011;23843;51.320;12.340;2022-12-20T06:44:30;11.27;;;7.17;;
38037;SDS011;23843;51.320;12.340;2022-12-20T06:46:55;11.13;;;7.30;;
38037;SDS011;23843;51.320;12.340;2022-12-20T06:49:20;14.33;;;8.47;;
38037;SDS011;23843;51.320;12.340;2022-12-20T06:51:46;10.60;;;6.80;;
38037;SDS011;23843;51.320;12.340;2022-12-20T06:54:11;15.37;;;9.70;;
38037;SDS011;23843;51.320;12.340;2022-12-20T06:56:38;13.37;;;8.60;;
38037;SDS011;23843;51.320;12.340;2022-12-20T06:59:04;14.37;;;8.97;;
38037;SDS011;23843;51.320;12.340;2022-12-20T07:01:30;15.80;;;9.57;;
38037;SDS011;23843;51.320;12.340;2022-12-20T07:03:55;17.53;;;10.37;;
38037;SDS011;23843;51.320;12.340;2022-12-20T07:06:21;16.77;;;10.07;;
38037;SDS011;23843;51.320;12.340;2022-12-20T07:08:46;16.07;;;10.07;;
38037;SDS011;23843;51.320;12.340;2022-12-20T07:11:12;14.03;;;8.17;;
38037;SDS011;23843;51.320;12.340;2022-12-20T07:13:38;14.73;;;9.27;;
38037;SDS011;23843;51.320;12.340;2022-12-20T07:16:04;15.10;;;9.27;;
38037;SDS011;23843;51.320;12.340;2022-12-20T07:18:30;17.97;;;9.87;;
38037;SDS011;23843;51.320;12.340;2022-12-20T07:20:58;18.33;;;10.50;;
38037;SDS011;23843;51.320;12.340;2022-12-20T07:23:24;21.83;;;12.60;;
38037;SDS011;23843;51.320;12.340;2022-12-20T07:25:52;19.77;;;11.37;;
38037;SDS011;23843;51.320;12.340;2022-12-20T07:28:18;18.00;;;10.70;;
38037;SDS011;23843;51.320;12.340;2022-12-20T07:30:45;20.27;;;12.27;;
38037;SDS011;23843;51.320;12.340;2022-12-20T07:33:10;19.50;;;11.10;;
38037;SDS011;23843;51.320;12.340;2022-12-20T07:35:36;14.63;;;9.30;;
38037;SDS011;23843;51.320;12.340;2022-12-20T07:38:01;18.50;;;11.20;;
38037;SDS011;23843;51.320;12.340;2022-12-20T07:40:27;15.87;;;9.87;;
38037;SDS011;23843;51.320;12.340;2022-12-20T07:42:52;14.53;;;9.43;;
38037;SDS011;23843;51.320;12.340;2022-12-20T07:45:17;11.40;;;7.70;;
38037;SDS011;23843;51.320;12.340;2022-12-20T07:47:44;19.00;;;10.97;;
38037;SDS011;23843;51.320;12.340;2022-12-20T07:50:10;14.23;;;9.70;;
38037;SDS011;23843;51.320;12.340;2022-12-20T07:52:35;14.53;;;9.63;;
38037;SDS011;23843;51.320;12.340;2022-12-20T07:55:02;18.07;;;11.23;;
38037;SDS011;23843;51.320;12.340;2022-12-20T07:57:33;16.40;;;10.07;;
38037;SDS011;23843;51.320;12.340;2022-12-20T08:00:03;17.90;;;11.20;;
38037;SDS011;23843;51.320;12.340;2022-12-20T08:02:31;18.50;;;11.57;;
38037;SDS011;23843;51.320;12.340;2022-12-20T08:05:02;17.97;;;10.87;;
38037;SDS011;23843;51.320;12.340;2022-12-20T08:07:30;20.07;;;12.10;;
38037;SDS011;23843;51.320;12.340;2022-12-20T08:09:56;16.97;;;10.83;;
38037;SDS011;23843;51.320;12.340;2022-12-20T08:12:22;18.23;;;11.17;;
38037;SDS011;23843;51.320;12.340;2022-12-20T08:14:49;14.60;;;9.20;;
38037;SDS011;23843;51.320;12.340;2022-12-20T08:17:15;17.17;;;10.17;;
38037;SDS011;23843;51.320;12.340;2022-12-20T08:19:40;14.83;;;9.23;;
38037;SDS011;23843;51.320;12.340;2022-12-20T08:22:12;18.57;;;11.03;;
38037;SDS011;23843;51.320;12.340;2022-12-20T08:24:37;15.87;;;10.07;;
38037;SDS011;23843;51.320;12.340;2022-12-20T08:27:02;16.27;;;10.10;;
38037;SDS011;23843;51.320;12.340;2022-12-20T08:29:28;13.63;;;9.57;;
38037;SDS011;23843;51.320;12.340;2022-12-20T08:31:53;16.53;;;9.90;;
38037;SDS011;23843;51.320;12.340;2022-12-20T08:34:19;15.13;;;10.17;;
38037;SDS011;23843;51.320;12.340;2022-12-20T08:36:44;18.63;;;12.07;;
38037;SDS011;23843;51.320;12.340;2022-12-20T08:39:11;17.23;;;11.17;;
38037;SDS011;23843;51.320;12.340;2022-12-20T08:41:36;15.97;;;10.07;;
38037;SDS011;23843;51.320;12.340;2022-12-20T08:44:02;20.67;;;13.07;;
38037;SDS011;23843;51.320;12.340;2022-12-20T08:46:27;18.73;;;11.50;;
38037;SDS011;23843;51.320;12.340;2022-12-20T08:48:53;18.37;;;11.87;;
38037;SDS011;23843;51.320;12.340;2022-12-20T08:51:18;15.43;;;9.70;;
38037;SDS011;23843;51.320;12.340;2022-12-20T08:53:44;17.33;;;10.63;;
38037;SDS011;23843;51.320;12.340;2022-12-20T08:56:11;17.33;;;11.03;;
38037;SDS011;23843;51.320;12.340;2022-12-20T08:58:38;17.67;;;11.03;;
38037;SDS011;23843;51.320;12.340;2022-12-20T09:01:05;21.33;;;12.37;;
38037;SDS011;23843;51.320;12.340;2022-12-20T09:03:32;19.40;;;12.67;;
38037;SDS011;23843;51.320;12.340;2022-12-20T09:05:58;18.50;;;11.57;;
38037;SDS011;23843;51.320;12.340;2022-12-20T09:08:23;18.80;;;12.37;;
38037;SDS011;23843;51.320;12.340;2022-12-20T09:10:49;22.93;;;13.73;;
38037;SDS011;23843;51.320;12.340;2022-12-20T09:13:16;22.57;;;13.83;;
38037;SDS011;23843;51.320;12.340;2022-12-20T09:15:42;19.20;;;11.80;;
38037;SDS011;23843;51.320;12.340;2022-12-20T09:18:07;19.93;;;12.37;;
38037;SDS011;23843;51.320;12.340;2022-12-20T09:20:33;22.43;;;13.13;;
38037;SDS011;23843;51.320;12.340;2022-12-20T09:22:58;21.07;;;12.37;;
38037;SDS011;23843;51.320;12.340;2022-12-20T09:25:24;20.23;;;13.43;;
38037;SDS011;23843;51.320;12.340;2022-12-20T09:27:50;19.13;;;11.73;;
38037;SDS011;23843;51.320;12.340;2022-12-20T09:30:16;20.60;;;12.60;;
38037;SDS011;23843;51.320;12.340;2022-12-20T09:32:42;18.50;;;11.60;;
38037;SDS011;23843;51.320;12.340;2022-12-20T09:35:08;18.07;;;11.73;;
38037;SDS011;23843;51.320;12.340;2022-12-20T09:37:33;20.50;;;11.50;;
38037;SDS011;23843;51.320;12.340;2022-12-20T09:39:59;14.27;;;9.27;;
38037;SDS011;23843;51.320;12.340;2022-12-20T09:42:24;18.80;;;11.77;;
38037;SDS011;23843;51.320;12.340;2022-12-20T09:44:53;17.90;;;12.10;;
38037;SDS011;23843;51.320;12.340;2022-12-20T09:47:26;16.77;;;10.90;;
38037;SDS011;23843;51.320;12.340;2022-12-20T09:49:52;23.13;;;13.73;;
38037;SDS011;23843;51.320;12.340;2022-12-20T09:52:25;19.13;;;12.33;;
38037;SDS011;23843;51.320;12.340;2022-12-20T09:55:00;19.47;;;11.07;;
38037;SDS011;23843;51.320;12.340;2022-12-20T09:57:45;15.33;;;9.77;;
38037;SDS011;23843;51.320;12.340;2022-12-20T10:00:19;16.10;;;10.03;;
38037;SDS011;23843;51.320;12.340;2022-12-20T10:02:46;19.63;;;12.27;;
38037;SDS011;23843;51.320;12.340;2022-12-20T10:05:13;17.77;;;11.53;;
38037;SDS011;23843;51.320;12.340;2022-12-20T10:07:52;16.13;;;9.67;;
38037;SDS011;23843;51.320;12.340;2022-12-20T10:10:35;20.13;;;11.97;;
38037;SDS011;23843;51.320;12.340;2022-12-20T10:13:11;19.80;;;12.00;;
38037;SDS011;23843;51.320;12.340;2022-12-20T10:15:48;17.30;;;10.90;;
38037;SDS011;23843;51.320;12.340;2022-12-20T10:18:23;16.20;;;10.53;;
38037;SDS011;23843;51.320;12.340;2022-12-20T10:21:05;15.70;;;10.33;;
38037;SDS011;23843;51.320;12.340;2022-12-20T10:23:36;13.43;;;8.73;;
38037;SDS011;23843;51.320;12.340;2022-12-20T10:26:08;13.50;;;8.23;;
38037;SDS011;23843;51.320;12.340;2022-12-20T10:28:34;16.43;;;10.20;;
38037;SDS011;23843;51.320;12.340;2022-12-20T10:31:00;15.77;;;10.27;;
38037;SDS011;23843;51.320;12.340;2022-12-20T10:33:29;15.53;;;10.43;;
38037;SDS011;23843;51.320;12.340;2022-12-20T10:35:55;16.27;;;10.07;;
38037;SDS011;23843;51.320;12.340;2022-12-20T10:38:42;13.90;;;9.53;;
38037;SDS011;23843;51.320;12.340;2022-12-20T10:41:10;15.43;;;9.90;;
38037;SDS011;23843;51.320;12.340;2022-12-20T10:43:41;16.93;;;9.73;;
38037;SDS011;23843;51.320;12.340;2022-12-20T10:46:08;15.00;;;9.83;;
38037;SDS011;23843;51.320;12.340;2022-12-20T10:48:36;14.87;;;9.80;;
38037;SDS011;23843;51.320;12.340;2022-12-20T10:51:03;13.10;;;8.30;;
38037;SDS011;23843;51.320;12.340;2022-12-20T10:53:50;12.63;;;8.33;;
38037;SDS011;23843;51.320;12.340;2022-12-20T10:56:19;15.07;;;8.80;;
38037;SDS011;23843;51.320;12.340;2022-12-20T10:58:53;15.27;;;9.60;;
38037;SDS011;23843;51.320;12.340;2022-12-20T11:01:21;12.50;;;7.90;;
38037;SDS011;23843;51.320;12.340;2022-12-20T11:03:53;14.20;;;9.07;;
38037;SDS011;23843;51.320;12.340;2022-12-20T11:06:21;14.77;;;9.20;;
38037;SDS011;23843;51.320;12.340;2022-12-20T11:08:49;13.37;;;8.23;;
38037;SDS011;23843;51.320;12.340;2022-12-20T11:11:15;12.17;;;8.20;;
38037;SDS011;23843;51.320;12.340;2022-12-20T11:13:42;9.07;;;6.47;;
38037;SDS011;23843;51.320;12.340;2022-12-20T11:16:22;10.97;;;7.27;;
38037;SDS011;23843;51.320;12.340;2022-12-20T11:18:50;13.40;;;8.30;;
38037;SDS011;23843;51.320;12.340;2022-12-20T11:21:28;13.80;;;8.20;;
38037;SDS011;23843;51.320;12.340;2022-12-20T11:24:00;13.63;;;8.47;;
38037;SDS011;23843;51.320;12.340;2022-12-20T11:26:36;12.23;;;7.97;;
38037;SDS011;23843;51.320;12.340;2022-12-20T11:29:19;12.10;;;6.90;;
38037;SDS011;23843;51.320;12.340;2022-12-20T11:31:56;12.20;;;8.00;;
38037;SDS011;23843;51.320;12.340;2022-12-20T11:34:32;16.57;;;9.57;;
38037;SDS011;23843;51.320;12.340;2022-12-20T11:37:08;15.37;;;9.07;;
38037;SDS011;23843;51.320;12.340;2022-12-20T11:42:51;12.97;;;8.60;;
38037;SDS011;23843;51.320;12.340;2022-12-20T11:45:26;10.27;;;7.10;;
38037;SDS011;23843;51.320;12.340;2022-12-20T11:48:04;15.77;;;9.47;;
38037;SDS011;23843;51.320;12.340;2022-12-20T11:51:02;11.33;;;7.60;;
38037;SDS011;23843;51.320;12.340;2022-12-20T11:53:31;13.27;;;8.33;;
38037;SDS011;23843;51.320;12.340;2022-12-20T11:56:01;11.63;;;8.10;;
38037;SDS011;23843;51.320;12.340;2022-12-20T11:58:31;7.60;;;5.57;;
38037;SDS011;23843;51.320;12.340;2022-12-20T12:01:03;11.70;;;7.43;;
38037;SDS011;23843;51.320;12.340;2022-12-20T12:03:33;12.67;;;7.60;;
38037;SDS011;23843;51.320;12.340;2022-12-20T12:06:03;10.73;;;6.80;;
38037;SDS011;23843;51.320;12.340;2022-12-20T12:08:34;11.60;;;7.80;;
38037;SDS011;23843;51.320;12.340;2022-12-20T12:11:08;14.07;;;9.10;;
38037;SDS011;23843;51.320;12.340;2022-12-20T12:13:39;14.57;;;9.60;;
38037;SDS011;23843;51.320;12.340;2022-12-20T12:16:07;12.20;;;8.00;;
38037;SDS011;23843;51.320;12.340;2022-12-20T12:18:37;13.30;;;7.83;;
38037;SDS011;23843;51.320;12.340;2022-12-20T12:21:07;14.87;;;9.33;;
38037;SDS011;23843;51.320;12.340;2022-12-20T12:23:37;16.37;;;9.37;;
38037;SDS011;23843;51.320;12.340;2022-12-20T12:26:11;13.77;;;9.23;;
38037;SDS011;23843;51.320;12.340;2022-12-20T12:28:40;14.97;;;9.27;;
38037;SDS011;23843;51.320;12.340;2022-12-20T12:31:06;13.87;;;8.70;;
38037;SDS011;23843;51.320;12.340;2022-12-20T12:33:37;12.47;;;7.50;;
38037;SDS011;23843;51.320;12.340;2022-12-20T12:39:09;10.63;;;7.33;;
38037;SDS011;23843;51.320;12.340;2022-12-20T12:44:56;16.90;;;10.30;;
38037;SDS011;23843;51.320;12.340;2022-12-20T12:47:27;14.90;;;9.10;;
38037;SDS011;23843;51.320;12.340;2022-12-20T12:49:58;14.73;;;9.33;;
38037;SDS011;23843;51.320;12.340;2022-12-20T12:52:28;14.93;;;9.37;;
38037;SDS011;23843;51.320;12.340;2022-12-20T13:01:03;11.20;;;7.10;;
38037;SDS011;23843;51.320;12.340;2022-12-20T13:03:34;10.77;;;7.03;;
38037;SDS011;23843;51.320;12.340;2022-12-20T13:09:20;11.67;;;7.63;;
38037;SDS011;23843;51.320;12.340;2022-12-20T13:12:45;11.47;;;7.00;;
38037;SDS011;23843;51.320;12.340;2022-12-20T13:18:28;12.97;;;8.23;;
38037;SDS011;23843;51.320;12.340;2022-12-20T13:26:59;9.33;;;6.30;;
38037;SDS011;23843;51.320;12.340;2022-12-20T13:29:26;10.80;;;6.40;;
38037;SDS011;23843;51.320;12.340;2022-12-20T13:31:57;10.43;;;6.30;;
38037;SDS011;23843;51.320;12.340;2022-12-20T13:34:36;10.00;;;6.30;;
38037;SDS011;23843;51.320;12.340;2022-12-20T13:40:15;13.77;;;8.20;;
38037;SDS011;23843;51.320;12.340;2022-12-20T13:42:44;13.47;;;8.57;;
38037;SDS011;23843;51.320;12.340;2022-12-20T13:45:10;13.80;;;8.30;;
38037;SDS011;23843;51.320;12.340;2022-12-20T13:47:39;11.50;;;7.30;;
38037;SDS011;23843;51.320;12.340;2022-12-20T13:50:20;14.17;;;8.73;;
38037;SDS011;23843;51.320;12.340;2022-12-20T13:52:48;16.90;;;10.37;;
38037;SDS011;23843;51.320;12.340;2022-12-20T13:55:19;15.53;;;9.57;;
38037;SDS011;23843;51.320;12.340;2022-12-20T13:57:49;17.27;;;10.20;;
38037;SDS011;23843;51.320;12.340;2022-12-20T14:00:16;16.30;;;9.73;;
38037;SDS011;23843;51.320;12.340;2022-12-20T14:02:46;13.60;;;8.57;;
38037;SDS011;23843;51.320;12.340;2022-12-20T14:05:13;13.30;;;8.10;;
38037;SDS011;23843;51.320;12.340;2022-12-20T14:07:41;14.37;;;9.47;;
38037;SDS011;23843;51.320;12.340;2022-12-20T14:10:16;12.90;;;8.37;;
38037;SDS011;23843;51.320;12.340;2022-12-20T14:12:44;14.13;;;9.13;;
38037;SDS011;23843;51.320;12.340;2022-12-20T14:15:19;20.50;;;11.07;;
38037;SDS011;23843;51.320;12.340;2022-12-20T14:17:46;16.03;;;9.33;;
38037;SDS011;23843;51.320;12.340;2022-12-20T14:20:13;13.93;;;8.07;;
38037;SDS011;23843;51.320;12.340;2022-12-20T14:22:41;12.07;;;8.00;;
38037;SDS011;23843;51.320;12.340;2022-12-20T14:25:13;11.97;;;7.60;;
38037;SDS011;23843;51.320;12.340;2022-12-20T14:27:46;15.17;;;8.77;;
38037;SDS011;23843;51.320;12.340;2022-12-20T14:30:24;14.33;;;8.90;;
38037;SDS011;23843;51.320;12.340;2022-12-20T14:32:52;12.50;;;8.30;;
38037;SDS011;23843;51.320;12.340;2022-12-20T14:35:18;15.93;;;9.17;;
38037;SDS011;23843;51.320;12.340;2022-12-20T14:37:51;15.57;;;9.10;;
38037;SDS011;23843;51.320;12.340;2022-12-20T14:40:19;16.77;;;10.10;;
38037;SDS011;23843;51.320;12.340;2022-12-20T14:42:45;14.47;;;8.63;;
38037;SDS011;23843;51.320;12.340;2022-12-20T14:45:15;11.73;;;7.77;;
38037;SDS011;23843;51.320;12.340;2022-12-20T14:47:57;14.03;;;8.80;;
38037;SDS011;23843;51.320;12.340;2022-12-20T14:50:31;14.60;;;8.80;;
38037;SDS011;23843;51.320;12.340;2022-12-20T14:52:57;15.93;;;9.77;;
38037;SDS011;23843;51.320;12.340;2022-12-20T14:55:26;15.20;;;9.03;;
38037;SDS011;23843;51.320;12.340;2022-12-20T14:57:56;13.53;;;8.60;;
38037;SDS011;23843;51.320;12.340;2022-12-20T15:00:23;14.60;;;8.83;;
38037;SDS011;23843;51.320;12.340;2022-12-20T15:02:51;11.73;;;7.50;;
38037;SDS011;23843;51.320;12.340;2022-12-20T15:08:14;14.20;;;9.27;;
38037;SDS011;23843;51.320;12.340;2022-12-20T15:10:46;15.27;;;9.57;;
38037;SDS011;23843;51.320;12.340;2022-12-20T15:13:16;14.10;;;8.67;;
38037;SDS011;23843;51.320;12.340;2022-12-20T15:15:43;9.53;;;6.10;;
38037;SDS011;23843;51.320;12.340;2022-12-20T15:18:11;13.83;;;8.67;;
38037;SDS011;23843;51.320;12.340;2022-12-20T15:20:37;14.33;;;9.20;;
38037;SDS011;23843;51.320;12.340;2022-12-20T15:23:03;18.53;;;10.27;;
38037;SDS011;23843;51.320;12.340;2022-12-20T15:25:29;12.67;;;8.03;;
38037;SDS011;23843;51.320;12.340;2022-12-20T15:27:59;13.03;;;8.37;;
38037;SDS011;23843;51.320;12.340;2022-12-20T15:30:24;12.07;;;7.67;;
38037;SDS011;23843;51.320;12.340;2022-12-20T15:32:50;10.77;;;6.77;;
38037;SDS011;23843;51.320;12.340;2022-12-20T15:35:15;11.43;;;7.27;;
38037;SDS011;23843;51.320;12.340;2022-12-20T15:37:41;14.43;;;9.10;;
38037;SDS011;23843;51.320;12.340;2022-12-20T15:40:07;11.40;;;7.13;;
38037;SDS011;23843;51.320;12.340;2022-12-20T15:42:37;13.53;;;7.97;;
38037;SDS011;23843;51.320;12.340;2022-12-20T15:45:10;15.43;;;8.87;;
38037;SDS011;23843;51.320;12.340;2022-12-20T15:47:36;14.67;;;9.13;;
38037;SDS011;23843;51.320;12.340;2022-12-20T15:50:02;14.93;;;8.73;;
38037;SDS011;23843;51.320;12.340;2022-12-20T15:52:28;12.70;;;7.63;;
38037;SDS011;23843;51.320;12.340;2022-12-20T15:54:53;13.27;;;8.13;;
38037;SDS011;23843;51.320;12.340;2022-12-20T15:57:19;13.93;;;8.63;;
38037;SDS011;23843;51.320;12.340;2022-12-20T15:59:44;13.30;;;8.37;;
38037;SDS011;23843;51.320;12.340;2022-12-20T16:02:13;13.67;;;8.57;;
38037;SDS011;23843;51.320;12.340;2022-12-20T16:04:44;13.93;;;8.57;;
38037;SDS011;23843;51.320;12.340;2022-12-20T16:07:09;15.90;;;9.40;;
38037;SDS011;23843;51.320;12.340;2022-12-20T16:09:36;13.83;;;8.53;;
38037;SDS011;23843;51.320;12.340;2022-12-20T16:12:01;9.40;;;6.10;;
38037;SDS011;23843;51.320;12.340;2022-12-20T16:14:27;13.17;;;8.00;;
38037;SDS011;23843;51.320;12.340;2022-12-20T16:16:52;14.20;;;8.63;;
38037;SDS011;23843;51.320;12.340;2022-12-20T16:19:19;14.47;;;9.17;;
38037;SDS011;23843;51.320;12.340;2022-12-20T16:21:45;14.17;;;9.20;;
38037;SDS011;23843;51.320;12.340;2022-12-20T16:24:13;13.23;;;8.60;;
38037;SDS011;23843;51.320;12.340;2022-12-20T16:26:42;14.40;;;9.03;;
38037;SDS011;23843;51.320;12.340;2022-12-20T16:29:08;10.97;;;7.37;;
38037;SDS011;23843;51.320;12.340;2022-12-20T16:31:35;12.27;;;7.70;;
38037;SDS011;23843;51.320;12.340;2022-12-20T16:34:02;15.37;;;9.03;;
38037;SDS011;23843;51.320;12.340;2022-12-20T16:36:30;14.83;;;9.33;;
38037;SDS011;23843;51.320;12.340;2022-12-20T16:38:56;15.03;;;8.90;;
38037;SDS011;23843;51.320;12.340;2022-12-20T16:41:22;10.67;;;6.63;;
38037;SDS011;23843;51.320;12.340;2022-12-20T16:43:49;15.40;;;8.77;;
38037;SDS011;23843;51.320;12.340;2022-12-20T16:46:15;13.47;;;8.50;;
38037;SDS011;23843;51.320;12.340;2022-12-20T16:48:42;12.80;;;7.30;;
38037;SDS011;23843;51.320;12.340;2022-12-20T16:51:20;11.27;;;7.33;;
38037;SDS011;23843;51.320;12.340;2022-12-20T16:53:49;13.00;;;8.10;;
38037;SDS011;23843;51.320;12.340;2022-12-20T16:56:14;13.23;;;8.10;;
38037;SDS011;23843;51.320;12.340;2022-12-20T16:58:42;15.33;;;8.70;;
38037;SDS011;23843;51.320;12.340;2022-12-20T17:01:08;16.07;;;9.70;;
38037;SDS011;23843;51.320;12.340;2022-12-20T17:03:38;13.53;;;8.60;;
38037;SDS011;23843;51.320;12.340;2022-12-20T17:06:04;13.73;;;8.47;;
38037;SDS011;23843;51.320;12.340;2022-12-20T17:08:30;14.17;;;8.53;;
38037;SDS011;23843;51.320;12.340;2022-12-20T17:10:57;13.57;;;8.27;;
38037;SDS011;23843;51.320;12.340;2022-12-20T17:13:22;14.13;;;9.20;;
38037;SDS011;23843;51.320;12.340;2022-12-20T17:15:48;14.70;;;8.10;;
38037;SDS011;23843;51.320;12.340;2022-12-20T17:18:13;13.20;;;8.20;;
38037;SDS011;23843;51.320;12.340;2022-12-20T17:20:39;12.50;;;7.50;;
38037;SDS011;23843;51.320;12.340;2022-12-20T17:23:04;13.90;;;8.47;;
38037;SDS011;23843;51.320;12.340;2022-12-20T17:25:35;13.73;;;7.80;;
38037;SDS011;23843;51.320;12.340;2022-12-20T17:28:03;11.17;;;6.73;;
38037;SDS011;23843;51.320;12.340;2022-12-20T17:30:29;12.67;;;7.60;;
38037;SDS011;23843;51.320;12.340;2022-12-20T17:32:54;14.63;;;8.93;;
38037;SDS011;23843;51.320;12.340;2022-12-20T17:35:24;16.47;;;10.40;;
38037;SDS011;23843;51.320;12.340;2022-12-20T17:37:51;14.63;;;9.40;;
38037;SDS011;23843;51.320;12.340;2022-12-20T17:40:17;13.87;;;8.53;;
38037;SDS011;23843;51.320;12.340;2022-12-20T17:42:42;10.67;;;6.77;;
38037;SDS011;23843;51.320;12.340;2022-12-20T17:45:15;11.87;;;7.40;;
38037;SDS011;23843;51.320;12.340;2022-12-20T17:47:46;13.77;;;7.93;;
38037;SDS011;23843;51.320;12.340;2022-12-20T17:50:11;14.00;;;8.77;;
38037;SDS011;23843;51.320;12.340;2022-12-20T17:52:37;11.37;;;7.33;;
38037;SDS011;23843;51.320;12.340;2022-12-20T17:55:02;18.20;;;10.50;;
38037;SDS011;23843;51.320;12.340;2022-12-20T17:57:28;17.57;;;9.83;;
38037;SDS011;23843;51.320;12.340;2022-12-20T17:59:54;14.17;;;8.70;;
38037;SDS011;23843;51.320;12.340;2022-12-20T18:02:22;13.77;;;7.83;;
38037;SDS011;23843;51.320;12.340;2022-12-20T18:04:49;12.10;;;7.37;;
38037;SDS011;23843;51.320;12.340;2022-12-20T18:07:15;16.77;;;9.93;;
38037;SDS011;23843;51.320;12.340;2022-12-20T18:09:40;11.40;;;7.63;;
38037;SDS011;23843;51.320;12.340;2022-12-20T18:12:06;11.10;;;7.30;;
38037;SDS011;23843;51.320;12.340;2022-12-20T18:14:33;12.80;;;8.27;;
38037;SDS011;23843;51.320;12.340;2022-12-20T18:16:59;11.27;;;6.93;;
38037;SDS011;23843;51.320;12.340;2022-12-20T18:19:26;11.07;;;6.67;;
38037;SDS011;23843;51.320;12.340;2022-12-20T18:21:51;11.53;;;7.63;;
38037;SDS011;23843;51.320;12.340;2022-12-20T18:24:16;14.53;;;8.97;;
38037;SDS011;23843;51.320;12.340;2022-12-20T18:26:42;15.93;;;10.30;;
38037;SDS011;23843;51.320;12.340;2022-12-20T18:29:08;17.70;;;10.33;;
38037;SDS011;23843;51.320;12.340;2022-12-20T18:31:34;15.10;;;9.80;;
38037;SDS011;23843;51.320;12.340;2022-12-20T18:34:00;14.47;;;9.10;;
38037;SDS011;23843;51.320;12.340;2022-12-20T18:36:28;13.90;;;8.60;;
38037;SDS011;23843;51.320;12.340;2022-12-20T18:38:55;13.07;;;8.07;;
38037;SDS011;23843;51.320;12.340;2022-12-20T18:41:22;12.07;;;8.23;;
38037;SDS011;23843;51.320;12.340;2022-12-20T18:43:49;14.00;;;9.10;;
38037;SDS011;23843;51.320;12.340;2022-12-20T18:46:16;16.17;;;9.07;;
38037;SDS011;23843;51.320;12.340;2022-12-20T18:48:43;12.90;;;8.30;;
38037;SDS011;23843;51.320;12.340;2022-12-20T18:51:10;10.50;;;6.57;;
38037;SDS011;23843;51.320;12.340;2022-12-20T18:53:39;14.17;;;8.60;;
38037;SDS011;23843;51.320;12.340;2022-12-20T18:56:08;14.77;;;8.77;;
38037;SDS011;23843;51.320;12.340;2022-12-20T18:58:35;14.70;;;8.77;;
38037;SDS011;23843;51.320;12.340;2022-12-20T19:01:02;18.40;;;11.07;;
38037;SDS011;23843;51.320;12.340;2022-12-20T19:03:29;17.40;;;10.30;;
38037;SDS011;23843;51.320;12.340;2022-12-20T19:05:55;18.97;;;11.77;;
38037;SDS011;23843;51.320;12.340;2022-12-20T19:08:21;18.80;;;11.00;;
38037;SDS011;23843;51.320;12.340;2022-12-20T19:10:48;16.80;;;9.57;;
38037;SDS011;23843;51.320;12.340;2022-12-20T19:13:14;14.77;;;8.47;;
38037;SDS011;23843;51.320;12.340;2022-12-20T19:15:40;18.33;;;10.30;;
38037;SDS011;23843;51.320;12.340;2022-12-20T19:18:05;17.50;;;10.37;;
38037;SDS011;23843;51.320;12.340;2022-12-20T19:20:32;18.70;;;11.23;;
38037;SDS011;23843;51.320;12.340;2022-12-20T19:22:59;20.47;;;11.87;;
38037;SDS011;23843;51.320;12.340;2022-12-20T19:25:24;15.80;;;9.90;;
38037;SDS011;23843;51.320;12.340;2022-12-20T19:27:51;16.17;;;9.63;;
38037;SDS011;23843;51.320;12.340;2022-12-20T19:30:16;20.37;;;11.53;;
38037;SDS011;23843;51.320;12.340;2022-12-20T19:32:42;18.93;;;12.23;;
38037;SDS011;23843;51.320;12.340;2022-12-20T19:35:07;17.40;;;9.77;;
38037;SDS011;23843;51.320;12.340;2022-12-20T19:37:33;16.30;;;9.83;;
38037;SDS011;23843;51.320;12.340;2022-12-20T19:39:58;17.70;;;10.33;;
38037;SDS011;23843;51.320;12.340;2022-12-20T19:42:24;15.03;;;8.73;;
38037;SDS011;23843;51.320;12.340;2022-12-20T19:44:51;15.63;;;9.43;;
38037;SDS011;23843;51.320;12.340;2022-12-20T19:47:16;10.87;;;6.77;;
38037;SDS011;23843;51.320;12.340;2022-12-20T19:49:41;16.83;;;8.27;;
38037;SDS011;23843;51.320;12.340;2022-12-20T19:52:07;18.90;;;10.43;;
38037;SDS011;23843;51.320;12.340;2022-12-20T19:54:32;18.33;;;10.70;;
38037;SDS011;23843;51.320;12.340;2022-12-20T19:57:00;15.83;;;9.30;;
38037;SDS011;23843;51.320;12.340;2022-12-20T19:59:26;15.80;;;9.23;;
38037;SDS011;23843;51.320;12.340;2022-12-20T20:01:53;10.37;;;6.27;;
38037;SDS011;23843;51.320;12.340;2022-12-20T20:04:18;8.50;;;5.40;;
38037;SDS011;23843;51.320;12.340;2022-12-20T20:06:43;7.53;;;5.20;;
38037;SDS011;23843;51.320;12.340;2022-12-20T20:09:09;10.90;;;6.97;;
38037;SDS011;23843;51.320;12.340;2022-12-20T20:11:34;9.10;;;5.63;;
38037;SDS011;23843;51.320;12.340;2022-12-20T20:14:00;7.77;;;5.07;;
38037;SDS011;23843;51.320;12.340;2022-12-20T20:16:25;9.73;;;5.83;;
38037;SDS011;23843;51.320;12.340;2022-12-20T20:18:54;10.00;;;6.07;;
38037;SDS011;23843;51.320;12.340;2022-12-20T20:21:21;9.90;;;6.50;;
38037;SDS011;23843;51.320;12.340;2022-12-20T20:23:47;12.33;;;8.13;;
38037;SDS011;23843;51.320;12.340;2022-12-20T20:26:14;11.13;;;6.97;;
38037;SDS011;23843;51.320;12.340;2022-12-20T20:28:44;14.27;;;8.80;;